createdAt,value
2023-01-06T00:01:25.872Z,5.55
2023-01-06T00:03:58.342Z,5.30
2023-01-06T00:06:29.442Z,5.38
2023-01-06T00:08:58.973Z,5.97
2023-01-06T00:11:27.379Z,5.30
2023-01-06T00:13:56.590Z,5.10
2023-01-06T00:16:25.071Z,5.57
2023-01-06T00:18:56.437Z,5.40
2023-01-06T00:21:24.792Z,5.53
2023-01-06T00:23:55.069Z,5.35
2023-01-06T00:26:24.016Z,5.55
2023-01-06T00:28:54.552Z,5.43
2023-01-06T00:31:23.561Z,4.97
2023-01-06T00:33:51.860Z,3.90
2023-01-06T00:36:21.882Z,4.47
2023-01-06T00:38:50.824Z,4.80
2023-01-06T00:41:38.800Z,4.20
2023-01-06T00:44:07.739Z,5.25
2023-01-06T00:46:36.301Z,5.75
2023-01-06T00:49:07.172Z,5.40
2023-01-06T00:51:37.351Z,5.57
2023-01-06T00:54:05.892Z,5.32
2023-01-06T00:56:37.575Z,5.07
2023-01-06T00:59:06.138Z,4.63
2023-01-06T01:01:34.797Z,4.07
2023-01-06T01:04:03.435Z,4.10
2023-01-06T01:06:31.831Z,4.38
2023-01-06T01:09:01.274Z,3.90
2023-01-06T01:11:56.647Z,4.60
2023-01-06T01:14:26.482Z,5.25
2023-01-06T01:16:54.978Z,5.07
2023-01-06T01:19:23.846Z,5.50
2023-01-06T01:21:52.351Z,5.43
2023-01-06T01:24:21.180Z,5.60
2023-01-06T01:26:49.455Z,5.82
2023-01-06T01:29:19.979Z,4.95
2023-01-06T01:31:49.795Z,5.13
2023-01-06T01:34:19.256Z,4.53
2023-01-06T01:36:49.275Z,4.22
2023-01-06T01:39:19.765Z,5.47
2023-01-06T01:41:48.347Z,4.25
2023-01-06T01:44:53.368Z,4.20
2023-01-06T01:47:27.756Z,5.55
2023-01-06T01:50:00.051Z,4.80
2023-01-06T01:52:29.601Z,6.07
2023-01-06T01:54:58.236Z,5.00
2023-01-06T01:57:29.990Z,6.43
2023-01-06T01:59:59.758Z,5.20
2023-01-06T02:02:32.306Z,5.95
2023-01-06T02:05:02.317Z,5.65
2023-01-06T02:07:30.591Z,4.72
2023-01-06T02:10:06.779Z,5.10
2023-01-06T02:12:35.679Z,5.50
2023-01-06T02:15:03.861Z,4.88
2023-01-06T02:17:48.365Z,5.03
2023-01-06T02:20:37.377Z,4.82
2023-01-06T02:23:37.538Z,5.72
2023-01-06T02:26:27.993Z,5.10
2023-01-06T02:29:25.359Z,5.05
2023-01-06T02:32:09.726Z,4.82
2023-01-06T02:34:50.672Z,4.65
2023-01-06T02:37:33.795Z,4.38
2023-01-06T02:40:13.749Z,4.93
2023-01-06T02:42:46.930Z,4.78
2023-01-06T02:45:22.736Z,3.42
2023-01-06T02:48:00.539Z,4.05
2023-01-06T02:50:38.850Z,5.35
2023-01-06T02:53:13.727Z,3.83
2023-01-06T02:55:46.959Z,5.85
2023-01-06T02:58:25.104Z,5.20
2023-01-06T03:00:57.570Z,5.57
2023-01-06T03:03:30.563Z,3.63
2023-01-06T03:06:04.657Z,4.43
2023-01-06T03:08:34.956Z,5.00
2023-01-06T03:11:05.218Z,3.90
2023-01-06T03:13:39.603Z,4.47
2023-01-06T03:16:09.069Z,4.55
2023-01-06T03:18:39.411Z,4.47
2023-01-06T03:21:12.040Z,3.30
2023-01-06T03:23:41.455Z,3.80
2023-01-06T03:26:10.442Z,4.70
2023-01-06T03:28:39.124Z,3.55
2023-01-06T03:31:16.483Z,4.53
2023-01-06T03:33:56.403Z,4.03
2023-01-06T03:36:34.883Z,4.45
2023-01-06T03:39:12.337Z,4.25
2023-01-06T03:42:02.088Z,4.38
2023-01-06T03:44:40.189Z,3.83
2023-01-06T03:47:16.268Z,3.60
2023-01-06T03:49:55.232Z,4.03
2023-01-06T03:52:26.024Z,3.63
2023-01-06T03:54:58.421Z,3.65
2023-01-06T03:57:29.622Z,3.05
2023-01-06T04:00:03.501Z,3.13
2023-01-06T04:02:32.278Z,3.15
2023-01-06T04:05:10.493Z,3.33
2023-01-06T04:07:39.984Z,2.97
2023-01-06T04:10:08.972Z,3.05
2023-01-06T04:12:40.044Z,2.72
2023-01-06T04:15:10.665Z,2.95
2023-01-06T04:17:38.964Z,3.53
2023-01-06T04:20:11.237Z,2.83
2023-01-06T04:22:39.352Z,3.10
2023-01-06T04:25:08.345Z,2.90
2023-01-06T04:27:36.807Z,3.42
2023-01-06T04:30:05.596Z,2.70
2023-01-06T04:32:34.151Z,3.00
2023-01-06T04:35:02.375Z,3.38
2023-01-06T04:37:31.878Z,2.97
2023-01-06T04:39:59.957Z,2.90
2023-01-06T04:42:28.147Z,2.88
2023-01-06T04:44:56.318Z,2.00
2023-01-06T04:47:24.737Z,2.58
2023-01-06T04:49:52.811Z,2.80
2023-01-06T04:52:21.118Z,1.88
2023-01-06T04:54:50.887Z,1.52
2023-01-06T04:57:18.953Z,2.35
2023-01-06T04:59:47.260Z,2.22
2023-01-06T05:02:15.359Z,1.90
2023-01-06T05:04:48.073Z,2.78
2023-01-06T05:07:16.513Z,1.60
2023-01-06T05:09:44.938Z,2.10
2023-01-06T05:12:14.396Z,2.15
2023-01-06T05:14:42.715Z,2.00
2023-01-06T05:17:10.999Z,1.63
2023-01-06T05:19:39.143Z,2.00
2023-01-06T05:22:07.216Z,1.50
2023-01-06T05:24:35.306Z,1.77
2023-01-06T05:27:04.166Z,2.20
2023-01-06T05:29:34.191Z,1.65
2023-01-06T05:32:02.682Z,1.67
2023-01-06T05:34:30.780Z,1.67
2023-01-06T05:36:59.366Z,1.77
2023-01-06T05:39:27.499Z,1.35
2023-01-06T05:41:55.580Z,1.30
2023-01-06T05:44:23.711Z,1.20
2023-01-06T05:46:53.497Z,1.13
2023-01-06T05:49:21.828Z,1.60
2023-01-06T05:51:49.924Z,1.30
2023-01-06T05:54:18.544Z,1.27
2023-01-06T05:56:47.227Z,0.90
2023-01-06T05:59:15.476Z,1.20
2023-01-06T06:01:43.617Z,0.47
2023-01-06T06:04:15.065Z,1.17
2023-01-06T06:06:43.178Z,1.10
2023-01-06T06:09:12.182Z,0.80
2023-01-06T06:11:40.247Z,1.17
2023-01-06T06:14:10.561Z,0.95
2023-01-06T06:16:38.981Z,1.05
2023-01-06T06:19:07.072Z,0.80
2023-01-06T06:21:36.544Z,1.00
2023-01-06T06:24:04.985Z,1.00
2023-01-06T06:26:33.629Z,1.00
2023-01-06T06:29:01.775Z,1.33
2023-01-06T06:31:30.861Z,0.70
2023-01-06T06:34:01.929Z,0.73
2023-01-06T06:36:31.200Z,1.30
2023-01-06T06:39:01.743Z,0.80
2023-01-06T06:41:29.911Z,0.50
2023-01-06T06:43:58.370Z,0.70
2023-01-06T06:46:26.484Z,0.80
2023-01-06T06:48:54.596Z,0.70
2023-01-06T06:51:23.749Z,0.95
2023-01-06T06:53:52.439Z,1.00
2023-01-06T06:56:22.421Z,0.80
2023-01-06T06:58:50.677Z,0.80
2023-01-06T07:01:21.153Z,0.90
2023-01-06T07:03:50.084Z,0.93
2023-01-06T07:06:21.530Z,0.60
2023-01-06T07:08:50.023Z,1.00
2023-01-06T07:11:18.704Z,0.98
2023-01-06T07:13:48.231Z,0.85
2023-01-06T07:16:16.529Z,0.90
2023-01-06T07:18:44.963Z,0.98
2023-01-06T07:21:13.149Z,1.38
2023-01-06T07:23:41.286Z,1.05
2023-01-06T07:26:09.637Z,1.20
2023-01-06T07:28:38.096Z,1.08
2023-01-06T07:31:07.730Z,1.02
2023-01-06T07:33:35.832Z,1.27
2023-01-06T07:36:04.048Z,1.13
2023-01-06T07:38:32.437Z,1.00
2023-01-06T07:41:01.559Z,0.80
2023-01-06T07:43:30.005Z,0.90
2023-01-06T07:45:58.113Z,1.15
2023-01-06T07:48:27.606Z,1.13
2023-01-06T07:50:55.700Z,1.02
2023-01-06T07:53:23.819Z,0.90
2023-01-06T07:55:53.796Z,1.05
2023-01-06T07:58:23.901Z,0.80
2023-01-06T08:00:52.633Z,0.90
2023-01-06T08:03:20.758Z,0.80
2023-01-06T08:05:50.668Z,1.10
2023-01-06T08:08:19.162Z,0.80
2023-01-06T08:10:47.279Z,0.80
2023-01-06T08:13:15.675Z,1.38
2023-01-06T08:15:43.790Z,1.52
2023-01-06T08:18:11.941Z,0.80
2023-01-06T08:20:40.399Z,0.68
2023-01-06T08:23:09.893Z,1.13
2023-01-06T08:25:38.024Z,0.90
2023-01-06T08:28:06.602Z,0.93
2023-01-06T08:30:40.014Z,1.00
2023-01-06T08:33:08.493Z,1.17
2023-01-06T08:35:36.785Z,0.98
2023-01-06T08:38:05.187Z,1.23
2023-01-06T08:40:34.671Z,1.05
2023-01-06T08:43:03.175Z,1.35
2023-01-06T08:45:31.717Z,1.40
2023-01-06T08:47:59.839Z,0.80
2023-01-06T08:50:27.983Z,1.20
2023-01-06T08:52:56.153Z,1.30
2023-01-06T08:55:24.274Z,1.15
2023-01-06T08:57:55.027Z,1.50
2023-01-06T09:00:23.451Z,1.15
2023-01-06T09:02:51.782Z,1.33
2023-01-06T09:05:20.265Z,1.00
2023-01-06T09:07:49.638Z,1.08
2023-01-06T09:10:18.244Z,0.77
2023-01-06T09:12:46.394Z,1.50
2023-01-06T09:15:16.052Z,1.08
2023-01-06T09:17:44.419Z,1.88
2023-01-06T09:20:12.699Z,1.40
2023-01-06T09:22:41.162Z,1.20
2023-01-06T09:25:09.923Z,1.20
2023-01-06T09:27:38.338Z,1.40
2023-01-06T09:30:08.258Z,1.40
2023-01-06T09:32:37.716Z,1.00
2023-01-06T09:35:06.551Z,1.25
2023-01-06T09:37:34.720Z,0.98
2023-01-06T09:40:03.252Z,1.15
2023-01-06T09:42:45.038Z,0.98
2023-01-06T09:45:19.442Z,0.90
2023-01-06T09:47:53.702Z,1.13
2023-01-06T09:50:32.961Z,0.75
2023-01-06T09:53:04.542Z,0.88
2023-01-06T09:55:36.340Z,1.17
2023-01-06T09:58:09.577Z,1.20
2023-01-06T10:00:42.509Z,0.63
2023-01-06T10:03:15.136Z,0.60
2023-01-06T10:05:52.230Z,0.35
2023-01-06T10:08:29.022Z,0.55
2023-01-06T10:11:15.084Z,0.52
2023-01-06T10:13:56.625Z,0.82
2023-01-06T10:16:35.329Z,0.90
2023-01-06T10:19:18.024Z,0.45
2023-01-06T10:21:51.607Z,0.57
2023-01-06T10:24:43.416Z,0.50
2023-01-06T10:27:21.787Z,0.65
2023-01-06T10:29:52.357Z,0.95
2023-01-06T10:32:20.461Z,0.30
2023-01-06T10:34:51.997Z,0.30
2023-01-06T10:37:24.823Z,0.22
2023-01-06T10:40:00.564Z,0.40
2023-01-06T10:42:52.785Z,0.80
2023-01-06T10:45:22.907Z,0.40
2023-01-06T10:47:51.531Z,0.43
2023-01-06T10:50:21.780Z,0.70
2023-01-06T10:52:50.549Z,1.00
2023-01-06T10:55:33.631Z,0.68
2023-01-06T10:58:11.811Z,0.30
2023-01-06T11:00:58.486Z,0.20
2023-01-06T11:03:35.313Z,0.70
2023-01-06T11:06:08.876Z,0.80
2023-01-06T11:08:39.089Z,0.60
2023-01-06T11:11:26.878Z,0.45
2023-01-06T11:13:58.888Z,0.70
2023-01-06T11:16:29.275Z,0.20
2023-01-06T11:18:59.814Z,0.45
2023-01-06T11:21:40.919Z,0.30
2023-01-06T11:24:19.206Z,0.70
2023-01-06T11:26:52.788Z,0.60
2023-01-06T11:29:27.059Z,0.65
2023-01-06T11:31:56.083Z,0.60
2023-01-06T11:34:27.674Z,0.40
2023-01-06T11:36:58.224Z,0.63
2023-01-06T11:39:30.171Z,0.75
2023-01-06T11:42:03.227Z,0.60
2023-01-06T11:44:34.949Z,0.70
2023-01-06T11:47:06.409Z,0.47
2023-01-06T11:49:38.149Z,0.70
2023-01-06T11:52:19.176Z,0.75
2023-01-06T11:54:57.717Z,1.13
2023-01-06T11:57:32.256Z,0.70
2023-01-06T12:00:23.828Z,0.50
2023-01-06T12:03:03.364Z,0.60
2023-01-06T12:05:39.562Z,0.57
2023-01-06T12:08:16.333Z,0.88
2023-01-06T12:10:46.841Z,0.57
2023-01-06T12:13:15.435Z,0.50
2023-01-06T12:15:45.006Z,0.68
2023-01-06T12:18:17.928Z,0.73
2023-01-06T12:20:50.881Z,0.80
2023-01-06T12:23:26.033Z,0.68
2023-01-06T12:25:57.387Z,0.70
2023-01-06T12:28:28.338Z,0.55
2023-01-06T12:31:03.607Z,0.90
2023-01-06T12:33:36.685Z,1.00
2023-01-06T12:36:07.897Z,0.80
2023-01-06T12:38:48.276Z,0.82
2023-01-06T12:41:21.129Z,1.00
2023-01-06T12:43:57.537Z,0.77
2023-01-06T12:46:31.003Z,0.80
2023-01-06T12:49:04.550Z,1.13
2023-01-06T12:51:43.035Z,0.77
2023-01-06T12:54:17.413Z,1.00
2023-01-06T12:57:01.392Z,0.80
2023-01-06T12:59:45.580Z,1.00
2023-01-06T13:02:37.316Z,0.77
2023-01-06T13:05:19.820Z,0.95
2023-01-06T13:07:55.824Z,1.00
2023-01-06T13:10:33.085Z,1.10
2023-01-06T13:13:24.961Z,0.90
2023-01-06T13:15:55.716Z,1.00
2023-01-06T13:18:31.571Z,0.98
2023-01-06T13:21:04.229Z,0.80
2023-01-06T13:23:59.376Z,1.02
2023-01-06T13:26:58.764Z,1.00
2023-01-06T13:29:40.503Z,1.00
2023-01-06T13:32:35.439Z,0.25
2023-01-06T13:35:33.425Z,0.88
2023-01-06T13:38:14.668Z,0.75
2023-01-06T13:40:44.997Z,0.82
2023-01-06T13:43:22.211Z,0.93
2023-01-06T13:45:53.959Z,0.90
2023-01-06T13:48:25.783Z,0.90
2023-01-06T13:50:53.909Z,1.00
2023-01-06T13:53:24.830Z,0.82
2023-01-06T13:56:26.241Z,0.73
2023-01-06T13:59:23.322Z,0.85
2023-01-06T14:01:52.972Z,0.90
2023-01-06T14:04:49.439Z,0.70
2023-01-06T14:07:33.152Z,0.90
2023-01-06T14:10:02.502Z,0.55
2023-01-06T14:12:31.070Z,0.90
2023-01-06T14:15:03.121Z,0.60
2023-01-06T14:17:40.969Z,0.32
2023-01-06T14:20:27.370Z,1.08
2023-01-06T14:23:04.831Z,0.80
2023-01-06T14:25:37.207Z,1.00
2023-01-06T14:28:27.916Z,0.85
2023-01-06T14:31:46.905Z,0.70
2023-01-06T14:34:20.075Z,0.60
2023-01-06T14:36:52.633Z,0.82
2023-01-06T14:39:26.270Z,0.60
2023-01-06T14:42:01.753Z,0.60
2023-01-06T14:44:40.845Z,0.80
2023-01-06T14:47:16.424Z,0.60
2023-01-06T14:49:55.752Z,0.47
2023-01-06T14:52:33.352Z,0.50
2023-01-06T14:55:02.859Z,0.60
2023-01-06T14:57:35.994Z,0.50
2023-01-06T15:00:16.457Z,0.70
2023-01-06T15:02:46.784Z,0.50
2023-01-06T15:05:23.114Z,0.60
2023-01-06T15:08:01.600Z,0.55
2023-01-06T15:10:33.375Z,0.60
2023-01-06T15:13:01.980Z,0.50
2023-01-06T15:15:33.107Z,0.57
2023-01-06T15:18:03.723Z,0.60
2023-01-06T15:20:35.880Z,0.50
2023-01-06T15:23:04.140Z,0.52
2023-01-06T15:25:35.080Z,0.63
2023-01-06T15:28:03.211Z,0.70
2023-01-06T15:30:35.113Z,0.60
2023-01-06T15:33:04.763Z,0.50
2023-01-06T15:35:35.327Z,0.60
2023-01-06T15:38:24.032Z,0.55
2023-01-06T15:40:53.072Z,0.50
2023-01-06T15:43:23.451Z,0.90
2023-01-06T15:45:59.212Z,0.70
2023-01-06T15:48:30.687Z,0.52
2023-01-06T15:51:01.084Z,0.50
2023-01-06T15:53:32.664Z,0.60
2023-01-06T15:56:02.663Z,0.60
2023-01-06T15:58:35.504Z,0.60
2023-01-06T16:01:09.964Z,0.70
2023-01-06T16:03:39.979Z,0.60
2023-01-06T16:06:12.547Z,0.80
2023-01-06T16:08:41.676Z,0.70
2023-01-06T16:11:41.184Z,0.73
2023-01-06T16:14:25.997Z,0.82
2023-01-06T16:16:55.320Z,0.95
2023-01-06T16:19:24.003Z,0.90
2023-01-06T16:21:55.692Z,1.13
2023-01-06T16:24:27.337Z,0.70
2023-01-06T16:26:57.795Z,1.25
2023-01-06T16:29:29.319Z,1.25
2023-01-06T16:32:01.058Z,1.02
2023-01-06T16:34:32.507Z,1.02
2023-01-06T16:37:04.215Z,1.17
2023-01-06T16:39:32.283Z,1.33
2023-01-06T16:42:40.775Z,1.13
2023-01-06T16:45:17.483Z,1.20
2023-01-06T16:47:46.071Z,1.48
2023-01-06T16:50:26.274Z,1.20
2023-01-06T16:53:06.968Z,1.70
2023-01-06T16:55:35.272Z,1.48
2023-01-06T16:58:07.602Z,1.45
2023-01-06T17:00:41.003Z,1.50
2023-01-06T17:03:15.141Z,1.60
2023-01-06T17:05:44.097Z,1.30
2023-01-06T17:08:16.813Z,1.58
2023-01-06T17:10:45.366Z,1.50
2023-01-06T17:13:34.068Z,1.85
2023-01-06T17:16:07.546Z,1.50
2023-01-06T17:18:36.033Z,1.30
2023-01-06T17:21:12.585Z,1.98
2023-01-06T17:23:44.788Z,1.40
2023-01-06T17:26:16.629Z,1.60
2023-01-06T17:28:46.469Z,1.40
2023-01-06T17:31:17.044Z,2.03
2023-01-06T17:33:47.066Z,2.30
2023-01-06T17:36:23.994Z,1.77
2023-01-06T17:38:54.115Z,2.00
2023-01-06T17:41:22.907Z,2.33
2023-01-06T17:43:51.039Z,2.22
2023-01-06T17:46:24.121Z,2.42
2023-01-06T17:48:57.969Z,2.50
2023-01-06T17:51:26.314Z,3.00
2023-01-06T17:54:23.136Z,2.60
2023-01-06T17:56:51.288Z,3.63
2023-01-06T17:59:19.528Z,3.53
2023-01-06T18:01:47.711Z,3.97
2023-01-06T18:04:16.795Z,3.70
2023-01-06T18:06:52.733Z,4.35
2023-01-06T18:09:25.548Z,4.05
2023-01-06T18:11:58.758Z,4.35
2023-01-06T18:14:33.147Z,4.53
2023-01-06T18:17:15.540Z,4.00
2023-01-06T18:19:43.753Z,4.20
2023-01-06T18:22:17.581Z,4.55
2023-01-06T18:24:49.617Z,4.65
2023-01-06T18:27:23.112Z,4.32
2023-01-06T18:29:52.281Z,4.30
2023-01-06T18:32:32.295Z,4.78
2023-01-06T18:35:02.154Z,4.68
2023-01-06T18:37:32.687Z,5.05
2023-01-06T18:40:03.953Z,4.13
2023-01-06T18:42:33.510Z,5.28
2023-01-06T18:45:10.585Z,4.63
2023-01-06T18:47:42.023Z,5.15
2023-01-06T18:50:29.436Z,5.63
2023-01-06T18:52:59.186Z,5.72
2023-01-06T18:55:35.812Z,5.32
2023-01-06T18:58:09.174Z,5.28
2023-01-06T19:00:41.261Z,5.35
2023-01-06T19:03:31.433Z,4.70
2023-01-06T19:06:41.165Z,6.00
2023-01-06T19:09:23.770Z,6.03
2023-01-06T19:11:59.543Z,5.38
2023-01-06T19:14:30.537Z,5.68
2023-01-06T19:17:00.570Z,5.97
2023-01-06T19:19:34.168Z,5.38
2023-01-06T19:22:11.620Z,5.85
2023-01-06T19:24:46.749Z,5.97
2023-01-06T19:27:38.481Z,5.47
2023-01-06T19:30:33.435Z,6.18
2023-01-06T19:33:22.678Z,6.13
2023-01-06T19:35:52.196Z,5.00
2023-01-06T19:38:26.542Z,5.72
2023-01-06T19:40:55.486Z,4.90
2023-01-06T19:43:29.933Z,6.07
2023-01-06T19:45:58.443Z,7.03
2023-01-06T19:48:30.529Z,7.45
2023-01-06T19:51:03.848Z,7.65
2023-01-06T19:53:40.572Z,6.78
2023-01-06T19:56:17.772Z,7.50
2023-01-06T19:58:52.092Z,7.30
2023-01-06T20:01:20.561Z,8.18
2023-01-06T20:03:50.561Z,8.38
2023-01-06T20:06:18.892Z,8.65
2023-01-06T20:08:48.634Z,7.68
2023-01-06T20:11:17.008Z,7.30
2023-01-06T20:13:45.393Z,6.82
2023-01-06T20:16:14.955Z,7.55
2023-01-06T20:18:43.623Z,7.82
2023-01-06T20:21:11.700Z,7.10
2023-01-06T20:23:39.843Z,7.18
2023-01-06T20:26:07.935Z,7.40
2023-01-06T20:28:36.410Z,6.85
2023-01-06T20:31:04.733Z,7.32
2023-01-06T20:33:34.222Z,5.88
2023-01-06T20:36:02.368Z,6.38
2023-01-06T20:38:30.802Z,6.65
2023-01-06T20:40:58.877Z,6.20
2023-01-06T20:43:27.260Z,5.68
2023-01-06T20:45:55.444Z,5.32
2023-01-06T20:48:23.612Z,6.07
2023-01-06T20:50:53.386Z,5.63
2023-01-06T20:53:21.643Z,4.85
2023-01-06T20:55:50.055Z,4.50
2023-01-06T20:58:18.458Z,3.47
2023-01-06T21:00:46.891Z,4.43
2023-01-06T21:03:15.073Z,4.95
2023-01-06T21:05:43.993Z,4.18
2023-01-06T21:08:14.080Z,4.80
2023-01-06T21:10:42.190Z,4.43
2023-01-06T21:13:13.011Z,5.10
2023-01-06T21:15:41.135Z,3.92
2023-01-06T21:18:09.289Z,4.72
2023-01-06T21:20:37.627Z,4.65
2023-01-06T21:23:06.066Z,4.85
2023-01-06T21:25:35.533Z,4.15
2023-01-06T21:28:03.644Z,4.20
2023-01-06T21:30:32.126Z,4.20
2023-01-06T21:33:00.268Z,4.43
2023-01-06T21:35:28.596Z,5.05
2023-01-06T21:37:56.752Z,2.70
2023-01-06T21:40:24.848Z,3.97
2023-01-06T21:43:08.527Z,3.80
2023-01-06T21:45:37.169Z,4.00
2023-01-06T21:48:06.383Z,3.53
2023-01-06T21:50:37.999Z,3.60
2023-01-06T21:53:06.360Z,3.60
2023-01-06T21:55:34.605Z,3.67
2023-01-06T21:58:04.395Z,3.78
2023-01-06T22:00:32.549Z,3.35
2023-01-06T22:03:00.741Z,3.30
2023-01-06T22:05:29.698Z,3.20
2023-01-06T22:07:57.807Z,3.20
2023-01-06T22:10:27.493Z,3.22
2023-01-06T22:12:59.209Z,3.10
2023-01-06T22:15:29.762Z,2.92
2023-01-06T22:17:59.858Z,3.03
2023-01-06T22:20:28.906Z,3.08
2023-01-06T22:22:57.455Z,2.67
2023-01-06T22:25:25.888Z,3.35
2023-01-06T22:27:53.993Z,3.65
2023-01-06T22:30:22.150Z,3.67
2023-01-06T22:32:51.671Z,2.97
2023-01-06T22:35:20.447Z,3.75
2023-01-06T22:37:48.948Z,3.58
2023-01-06T22:40:17.133Z,2.83
2023-01-06T22:42:45.828Z,4.03
2023-01-06T22:45:14.959Z,3.33
2023-01-06T22:47:43.203Z,2.80
2023-01-06T22:50:13.604Z,2.47
2023-01-06T22:52:41.864Z,3.30
2023-01-06T22:55:10.991Z,2.72
2023-01-06T22:57:39.153Z,3.05
2023-01-06T23:00:12.699Z,3.08
2023-01-06T23:02:41.283Z,3.00
2023-01-06T23:05:10.964Z,2.70
2023-01-06T23:07:41.803Z,2.63
2023-01-06T23:10:11.684Z,3.33
2023-01-06T23:12:41.445Z,3.78
2023-01-06T23:15:10.624Z,3.25
2023-01-06T23:17:38.884Z,2.72
2023-01-06T23:20:07.838Z,3.05
2023-01-06T23:22:35.931Z,2.75
2023-01-06T23:25:06.220Z,2.95
2023-01-06T23:27:34.301Z,2.95
2023-01-06T23:30:02.379Z,3.10
2023-01-06T23:32:30.507Z,3.20
2023-01-06T23:34:58.651Z,2.90
2023-01-06T23:37:26.805Z,3.55
2023-01-06T23:39:55.208Z,2.97
2023-01-06T23:42:24.840Z,3.90
2023-01-06T23:44:52.962Z,3.40
2023-01-06T23:47:21.077Z,3.47
2023-01-06T23:49:49.604Z,3.42
2023-01-06T23:52:17.998Z,3.13
2023-01-06T23:54:46.402Z,3.10
2023-01-06T23:57:16.095Z,3.10
2023-01-06T23:59:45.813Z,2.78
